createdAt,value
2018-01-12T00:01:54.769Z,68.17
2018-01-12T00:03:57.410Z,70.17
2018-01-12T00:06:00.069Z,73.90
2018-01-12T00:08:02.738Z,63.83
2018-01-12T00:10:05.400Z,70.93
2018-01-12T00:12:08.067Z,65.47
2018-01-12T00:14:10.744Z,68.40
2018-01-12T00:16:13.407Z,68.60
2018-01-12T00:18:16.059Z,68.33
2018-01-12T00:20:18.746Z,75.33
2018-01-12T00:22:21.393Z,82.53
2018-01-12T00:24:24.040Z,77.10
2018-01-12T00:26:26.800Z,67.83
2018-01-12T00:28:29.464Z,92.70
2018-01-12T00:30:32.108Z,86.67
2018-01-12T00:32:35.572Z,76.80
2018-01-12T00:34:38.225Z,83.00
2018-01-12T00:36:40.967Z,85.33
2018-01-12T00:38:43.638Z,89.47
2018-01-12T00:40:46.286Z,71.80
2018-01-12T00:42:48.954Z,83.27
2018-01-12T00:44:51.636Z,92.13
2018-01-12T00:46:55.078Z,95.13
2018-01-12T00:48:57.726Z,99.40
2018-01-12T00:51:01.170Z,85.87
2018-01-12T00:53:03.864Z,75.93
2018-01-12T00:55:06.534Z,71.23
2018-01-12T00:57:09.223Z,87.23
2018-01-12T00:59:11.907Z,107.70
2018-01-12T01:01:15.351Z,104.70
2018-01-12T01:03:18.029Z,102.83
2018-01-12T01:05:20.671Z,92.53
2018-01-12T01:07:23.326Z,78.83
2018-01-12T01:09:26.773Z,79.57
2018-01-12T01:11:29.438Z,101.47
2018-01-12T01:13:32.088Z,81.63
2018-01-12T01:15:34.786Z,99.30
2018-01-12T01:17:37.450Z,93.70
2018-01-12T01:19:40.119Z,85.47
2018-01-12T01:21:42.830Z,99.13
2018-01-12T01:23:45.503Z,91.17
2018-01-12T01:25:48.179Z,75.67
2018-01-12T01:27:50.874Z,81.90
2018-01-12T01:29:53.514Z,79.37
2018-01-12T01:31:56.309Z,104.70
2018-01-12T01:33:58.979Z,67.00
2018-01-12T01:36:01.636Z,68.80
2018-01-12T01:38:04.299Z,59.30
2018-01-12T01:40:07.001Z,62.90
2018-01-12T01:42:09.668Z,58.77
2018-01-12T01:44:12.321Z,59.10
2018-01-12T01:46:15.032Z,52.90
2018-01-12T01:48:29.589Z,62.97
2018-01-12T01:50:32.252Z,62.40
2018-01-12T01:52:34.926Z,65.40
2018-01-12T01:54:37.598Z,57.97
2018-01-12T01:56:40.245Z,56.57
2018-01-12T01:58:42.939Z,63.43
2018-01-12T02:00:45.623Z,67.57
2018-01-12T02:02:48.282Z,59.37
2018-01-12T02:04:51.086Z,66.53
2018-01-12T02:06:53.781Z,60.50
2018-01-12T02:08:56.450Z,59.77
2018-01-12T02:10:59.131Z,71.97
2018-01-12T02:13:01.799Z,59.90
2018-01-12T02:15:04.447Z,55.03
2018-01-12T02:17:07.135Z,69.80
2018-01-12T02:19:09.788Z,73.07
2018-01-12T02:21:12.457Z,63.63
2018-01-12T02:23:15.165Z,74.33
2018-01-12T02:25:17.840Z,66.73
2018-01-12T02:27:20.544Z,80.60
2018-01-12T02:29:23.207Z,63.50
2018-01-12T02:31:25.837Z,70.53
2018-01-12T02:33:28.529Z,67.13
2018-01-12T02:35:31.999Z,67.30
2018-01-12T02:37:34.654Z,73.03
2018-01-12T02:39:38.065Z,76.77
2018-01-12T02:41:40.763Z,70.03
2018-01-12T02:43:43.416Z,76.00
2018-01-12T02:45:46.250Z,72.70
2018-01-12T02:47:48.920Z,77.30
2018-01-12T02:49:51.562Z,63.53
2018-01-12T02:51:54.229Z,72.00
2018-01-12T02:53:56.927Z,69.97
2018-01-12T02:55:59.571Z,70.57
2018-01-12T02:58:02.215Z,61.40
2018-01-12T03:00:04.929Z,63.20
2018-01-12T03:02:07.560Z,69.33
2018-01-12T03:04:10.230Z,64.27
2018-01-12T03:06:12.926Z,65.30
2018-01-12T03:08:16.324Z,65.03
2018-01-12T03:10:18.988Z,71.10
2018-01-12T03:12:22.434Z,61.40
2018-01-12T03:14:25.080Z,67.30
2018-01-12T03:16:27.774Z,63.40
2018-01-12T03:18:30.447Z,63.67
2018-01-12T03:20:33.107Z,65.30
2018-01-12T03:22:35.762Z,63.40
2018-01-12T03:24:39.199Z,58.40
2018-01-12T03:26:41.839Z,59.30
2018-01-12T03:28:44.486Z,64.93
2018-01-12T03:30:47.154Z,64.93
2018-01-12T03:32:54.289Z,63.47
2018-01-12T03:34:56.955Z,61.87
2018-01-12T03:36:59.632Z,59.93
2018-01-12T03:39:02.301Z,66.70
2018-01-12T03:41:04.957Z,65.30
2018-01-12T03:43:08.405Z,65.30
2018-01-12T03:45:11.068Z,64.30
2018-01-12T03:47:13.721Z,58.00
2018-01-12T03:49:16.394Z,63.57
2018-01-12T03:51:19.069Z,67.80
2018-01-12T03:53:21.700Z,70.80
2018-01-12T03:55:24.389Z,61.00
2018-01-12T03:57:27.833Z,62.90
2018-01-12T03:59:30.483Z,59.83
2018-01-12T04:01:33.138Z,64.97
2018-01-12T04:03:36.568Z,61.90
2018-01-12T04:05:39.256Z,67.80
2018-01-12T04:07:41.923Z,59.20
2018-01-12T04:09:51.800Z,62.80
2018-01-12T04:11:54.455Z,66.20
2018-01-12T04:13:57.129Z,59.90
2018-01-12T04:16:02.860Z,68.70
2018-01-12T04:18:09.313Z,70.10
2018-01-12T04:20:27.115Z,59.80
2018-01-12T04:22:30.511Z,73.03
2018-01-12T04:24:33.933Z,61.17
2018-01-12T04:26:40.189Z,59.73
2018-01-12T04:28:42.826Z,63.57
2018-01-12T04:30:45.456Z,60.50
2018-01-12T04:32:48.249Z,63.10
2018-01-12T04:34:50.910Z,65.50
2018-01-12T04:36:53.552Z,62.40
2018-01-12T04:38:56.259Z,61.13
2018-01-12T04:40:58.915Z,60.47
2018-01-12T04:43:01.552Z,61.20
2018-01-12T04:45:04.251Z,64.73
2018-01-12T04:47:06.920Z,67.50
2018-01-12T04:49:10.352Z,70.07
2018-01-12T04:51:13.038Z,66.73
2018-01-12T04:53:15.678Z,69.47
2018-01-12T04:55:18.334Z,65.20
2018-01-12T04:57:23.822Z,64.40
2018-01-12T04:59:26.488Z,61.30
2018-01-12T05:01:29.146Z,69.67
2018-01-12T05:03:31.917Z,64.23
2018-01-12T05:05:34.571Z,61.07
2018-01-12T05:07:37.994Z,67.07
2018-01-12T05:09:40.682Z,62.93
2018-01-12T05:11:43.366Z,62.17
2018-01-12T05:13:46.015Z,60.57
2018-01-12T05:15:48.711Z,63.77
2018-01-12T05:17:51.357Z,66.27
2018-01-12T05:20:02.194Z,62.10
2018-01-12T05:22:04.875Z,62.77
2018-01-12T05:24:08.295Z,73.50
2018-01-12T05:26:11.075Z,59.47
2018-01-12T05:28:13.745Z,64.23
2018-01-12T05:30:16.405Z,59.90
2018-01-12T05:32:19.917Z,67.17
2018-01-12T05:34:22.584Z,65.83
2018-01-12T05:36:25.262Z,61.40
2018-01-12T05:38:27.909Z,64.20
2018-01-12T05:40:32.380Z,64.07
2018-01-12T05:42:35.039Z,63.83
2018-01-12T05:44:37.693Z,63.07
2018-01-12T05:46:41.132Z,65.27
2018-01-12T05:48:43.784Z,56.37
2018-01-12T05:50:46.449Z,63.40
2018-01-12T05:52:49.121Z,62.67
2018-01-12T05:54:51.752Z,75.30
2018-01-12T05:56:54.397Z,71.40
2018-01-12T05:58:57.104Z,75.53
2018-01-12T06:03:52.364Z,69.10
2018-01-12T06:06:06.993Z,71.90
2018-01-12T06:08:10.987Z,68.27
2018-01-12T06:10:14.443Z,72.97
2018-01-12T06:12:17.091Z,71.83
2018-01-12T06:14:19.808Z,88.90
2018-01-12T06:16:23.340Z,67.03
2018-01-12T06:18:26.005Z,64.20
2018-01-12T06:20:29.440Z,64.97
2018-01-12T06:22:32.134Z,69.47
2018-01-12T06:24:35.566Z,72.20
2018-01-12T06:26:39.022Z,63.80
2018-01-12T06:28:41.708Z,69.53
2018-01-12T06:30:44.542Z,74.40
2018-01-12T06:32:47.190Z,68.87
2018-01-12T06:34:50.636Z,66.03
2018-01-12T06:36:53.333Z,67.33
2018-01-12T06:38:55.998Z,66.87
2018-01-12T06:40:59.455Z,74.90
2018-01-12T06:43:02.114Z,85.17
2018-01-12T06:45:05.578Z,71.07
2018-01-12T06:47:08.315Z,78.63
2018-01-12T06:49:10.981Z,77.07
2018-01-12T06:51:13.678Z,78.67
2018-01-12T06:53:16.342Z,71.30
2018-01-12T06:55:18.984Z,78.97
2018-01-12T06:57:22.425Z,82.50
2018-01-12T06:59:25.133Z,75.27
2018-01-12T07:01:27.796Z,74.67
2018-01-12T07:03:30.457Z,74.67
2018-01-12T07:05:33.138Z,75.70
2018-01-12T07:07:35.826Z,80.83
2018-01-12T07:09:38.468Z,67.93
2018-01-12T07:11:41.560Z,62.77
2018-01-12T07:13:44.236Z,62.67
2018-01-12T07:15:46.907Z,60.37
2018-01-12T07:17:49.775Z,64.20
2018-01-12T07:19:52.447Z,69.70
2018-01-12T07:22:07.023Z,64.27
2018-01-12T07:24:09.693Z,65.67
2018-01-12T07:26:12.384Z,66.53
2018-01-12T07:28:15.075Z,66.43
2018-01-12T07:30:17.782Z,65.50
2018-01-12T07:32:21.216Z,65.20
2018-01-12T07:34:23.870Z,59.73
2018-01-12T07:36:27.383Z,62.43
2018-01-12T07:38:30.070Z,57.10
2018-01-12T07:40:32.732Z,59.63
2018-01-12T07:42:35.515Z,60.00
2018-01-12T07:44:38.168Z,59.97
2018-01-12T07:46:41.627Z,58.93
2018-01-12T07:48:44.310Z,57.27
2018-01-12T07:50:48.057Z,57.43
2018-01-12T07:52:56.325Z,72.77
2018-01-12T07:54:59.013Z,71.10
2018-01-12T07:57:02.434Z,65.60
2018-01-12T07:59:05.119Z,58.70
2018-01-12T08:03:48.947Z,53.00
2018-01-12T08:05:52.360Z,56.30
2018-01-12T08:07:55.043Z,53.07
2018-01-12T08:09:57.701Z,55.10
2018-01-12T08:12:00.358Z,52.60
2018-01-12T08:14:03.796Z,53.87
2018-01-12T08:16:06.568Z,64.47
2018-01-12T08:18:10.459Z,53.20
2018-01-12T08:20:14.224Z,55.40
2018-01-12T08:22:16.872Z,51.90
2018-01-12T08:24:19.551Z,55.30
2018-01-12T08:26:22.219Z,55.90
2018-01-12T08:28:24.871Z,54.43
2018-01-12T08:30:27.650Z,55.00
2018-01-12T08:32:30.303Z,55.73
2018-01-12T08:34:33.832Z,57.10
2018-01-12T08:36:36.516Z,53.10
2018-01-12T08:38:39.182Z,55.00
2018-01-12T08:40:41.842Z,55.07
2018-01-12T08:42:44.512Z,50.40
2018-01-12T08:44:47.168Z,53.80
2018-01-12T08:46:50.585Z,53.10
2018-01-12T08:48:53.259Z,50.70
2018-01-12T08:50:55.914Z,51.00
2018-01-12T08:53:00.468Z,49.57
2018-01-12T08:55:03.148Z,47.10
2018-01-12T08:57:05.814Z,47.03
2018-01-12T08:59:08.486Z,45.70
2018-01-12T09:01:11.186Z,50.17
2018-01-12T09:03:13.831Z,50.97
2018-01-12T09:05:16.494Z,54.27
2018-01-12T09:07:20.027Z,45.17
2018-01-12T09:09:22.692Z,51.63
2018-01-12T09:11:25.352Z,49.80
2018-01-12T09:13:40.728Z,49.57
2018-01-12T09:15:43.468Z,50.60
2018-01-12T09:17:48.084Z,49.30
2018-01-12T09:19:50.813Z,47.10
2018-01-12T09:21:56.396Z,46.37
2018-01-12T09:23:59.049Z,47.10
2018-01-12T09:26:01.724Z,48.07
2018-01-12T09:28:04.382Z,46.60
2018-01-12T09:30:07.032Z,48.10
2018-01-12T09:32:15.549Z,46.57
2018-01-12T09:34:30.977Z,46.47
2018-01-12T09:36:33.637Z,48.47
2018-01-12T09:38:48.356Z,45.10
2018-01-12T09:40:51.793Z,47.60
2018-01-12T09:42:54.449Z,48.03
2018-01-12T09:44:57.139Z,48.60
2018-01-12T09:47:11.730Z,46.60
2018-01-12T09:49:14.391Z,48.50
2018-01-12T09:51:17.079Z,47.30
2018-01-12T09:53:19.725Z,47.70
2018-01-12T09:55:22.406Z,49.50
2018-01-12T09:57:25.073Z,47.87
2018-01-12T09:59:30.750Z,46.07
2018-01-12T10:01:48.304Z,48.40
2018-01-12T10:03:51.032Z,49.10
2018-01-12T10:05:53.677Z,48.40
2018-01-12T10:08:15.968Z,51.00
2018-01-12T10:10:18.612Z,50.83
2018-01-12T10:12:21.276Z,47.73
2018-01-12T10:14:23.961Z,49.87
2018-01-12T10:16:26.628Z,48.30
2018-01-12T10:18:35.290Z,50.10
2018-01-12T10:20:38.011Z,50.53
2018-01-12T10:22:41.438Z,47.60
2018-01-12T10:24:44.202Z,49.30
2018-01-12T10:26:46.904Z,45.77
2018-01-12T10:29:01.671Z,49.20
2018-01-12T10:31:04.374Z,47.77
2018-01-12T10:33:14.754Z,45.50
2018-01-12T10:35:19.291Z,49.87
2018-01-12T10:37:22.063Z,51.73
2018-01-12T10:39:24.774Z,47.17
2018-01-12T10:41:31.460Z,52.33
2018-01-12T10:43:34.112Z,53.57
2018-01-12T10:45:48.725Z,60.50
2018-01-12T10:47:52.250Z,51.30
2018-01-12T10:50:17.936Z,50.93
2018-01-12T10:52:21.423Z,53.27
2018-01-12T10:54:24.842Z,50.40
2018-01-12T10:56:27.496Z,54.10
2018-01-12T10:58:30.962Z,52.93
2018-01-12T11:00:33.643Z,54.37
2018-01-12T11:02:36.288Z,56.07
2018-01-12T11:04:38.981Z,53.27
2018-01-12T11:06:41.624Z,51.40
2018-01-12T11:08:44.271Z,54.97
2018-01-12T11:10:47.821Z,50.73
2018-01-12T11:12:50.478Z,50.57
2018-01-12T11:14:53.151Z,48.93
2018-01-12T11:16:55.837Z,50.17
2018-01-12T11:18:58.491Z,46.67
2018-01-12T11:21:01.186Z,50.23
2018-01-12T11:23:03.850Z,47.70
2018-01-12T11:25:06.729Z,50.37
2018-01-12T11:27:09.541Z,47.13
2018-01-12T11:29:12.276Z,49.20
2018-01-12T11:31:14.955Z,52.60
2018-01-12T11:33:17.649Z,52.80
2018-01-12T11:35:20.312Z,52.77
2018-01-12T11:37:22.979Z,50.03
2018-01-12T11:39:25.870Z,47.20
2018-01-12T11:41:28.528Z,47.60
2018-01-12T11:43:31.968Z,45.83
2018-01-12T11:45:34.664Z,47.50
2018-01-12T11:47:37.410Z,44.50
2018-01-12T11:49:40.066Z,46.43
2018-01-12T11:51:42.891Z,46.17
2018-01-12T11:53:45.558Z,50.83
2018-01-12T11:55:48.313Z,48.60
2018-01-12T11:57:51.013Z,45.83
2018-01-12T11:59:53.679Z,47.67
2018-01-12T12:01:56.349Z,48.00
2018-01-12T12:03:59.028Z,49.40
2018-01-12T12:06:02.288Z,51.67
2018-01-12T12:08:06.008Z,53.53
2018-01-12T12:10:08.754Z,51.57
2018-01-12T12:12:12.185Z,54.67
2018-01-12T12:14:14.848Z,53.60
2018-01-12T12:16:17.525Z,53.67
2018-01-12T12:18:20.237Z,49.73
2018-01-12T12:20:22.902Z,47.20
2018-01-12T12:22:26.409Z,48.03
2018-01-12T12:24:29.151Z,47.53
2018-01-12T12:26:31.822Z,44.50
2018-01-12T12:28:34.515Z,41.73
2018-01-12T12:30:37.589Z,41.60
2018-01-12T12:32:40.240Z,41.63
2018-01-12T12:34:43.716Z,40.20
2018-01-12T12:36:46.364Z,45.53
2018-01-12T12:38:49.050Z,44.27
2018-01-12T12:40:51.741Z,45.10
2018-01-12T12:42:54.410Z,45.20
2018-01-12T12:44:57.073Z,44.87
2018-01-12T12:47:00.532Z,43.83
2018-01-12T12:49:03.247Z,45.37
2018-01-12T12:51:05.921Z,43.63
2018-01-12T12:53:09.344Z,42.73
2018-01-12T12:55:12.010Z,43.57
2018-01-12T12:57:14.683Z,41.63
2018-01-12T12:59:17.390Z,43.77
2018-01-12T13:01:20.055Z,45.80
2018-01-12T13:03:23.490Z,48.70
2018-01-12T13:05:26.182Z,46.60
2018-01-12T13:07:28.829Z,46.90
2018-01-12T13:09:31.515Z,47.37
2018-01-12T13:11:34.165Z,47.40
2018-01-12T13:13:36.961Z,46.27
2018-01-12T13:15:39.685Z,45.70
2018-01-12T13:17:42.347Z,48.43
2018-01-12T13:19:45.016Z,46.47
2018-01-12T13:21:47.707Z,47.70
2018-01-12T13:23:50.356Z,49.13
2018-01-12T13:25:53.053Z,48.90
2018-01-12T13:27:55.746Z,46.63
2018-01-12T13:29:58.384Z,42.80
2018-01-12T13:32:01.061Z,43.27
2018-01-12T13:34:03.770Z,43.93
2018-01-12T13:36:06.785Z,42.03
2018-01-12T13:38:10.224Z,46.00
2018-01-12T13:40:12.888Z,41.80
2018-01-12T13:42:15.589Z,40.47
2018-01-12T13:44:18.233Z,39.60
2018-01-12T13:46:20.996Z,41.77
2018-01-12T13:48:23.704Z,42.07
2018-01-12T13:50:26.415Z,41.37
2018-01-12T13:52:29.139Z,40.23
2018-01-12T13:54:31.831Z,40.30
2018-01-12T13:56:34.514Z,41.47
2018-01-12T13:58:37.206Z,40.90
2018-01-12T14:00:39.870Z,41.60
2018-01-12T14:02:42.536Z,43.57
2018-01-12T14:04:45.216Z,40.37
2018-01-12T14:06:47.870Z,39.90
2018-01-12T14:08:50.518Z,40.43
2018-01-12T14:10:53.967Z,43.60
2018-01-12T14:12:56.629Z,42.43
2018-01-12T14:14:59.300Z,41.07
2018-01-12T14:17:01.950Z,40.97
2018-01-12T14:19:05.394Z,39.50
2018-01-12T14:21:08.070Z,41.10
2018-01-12T14:23:10.716Z,39.83
2018-01-12T14:25:13.387Z,40.07
2018-01-12T14:27:16.064Z,39.73
2018-01-12T14:29:18.723Z,41.00
2018-01-12T14:31:22.158Z,41.20
2018-01-12T14:33:24.847Z,41.60
2018-01-12T14:35:27.494Z,41.80
2018-01-12T14:37:30.159Z,43.30
2018-01-12T14:39:32.822Z,42.80
2018-01-12T14:41:36.250Z,43.40
2018-01-12T14:43:38.900Z,42.80
2018-01-12T14:45:41.614Z,42.03
2018-01-12T14:47:44.336Z,43.83
2018-01-12T14:49:47.769Z,43.87
2018-01-12T14:51:50.445Z,45.20
2018-01-12T14:53:53.097Z,41.43
2018-01-12T14:55:55.746Z,43.60
2018-01-12T14:57:58.474Z,43.27
2018-01-12T15:00:01.311Z,44.53
2018-01-12T15:02:04.739Z,45.77
2018-01-12T15:04:07.406Z,43.70
2018-01-12T15:06:10.055Z,44.93
2018-01-12T15:08:13.487Z,43.73
2018-01-12T15:10:16.152Z,44.63
2018-01-12T15:12:18.804Z,45.00
2018-01-12T15:14:22.245Z,44.20
2018-01-12T15:16:24.909Z,42.03
2018-01-12T15:18:27.570Z,42.77
2018-01-12T15:20:30.878Z,42.00
2018-01-12T15:22:33.531Z,41.97
2018-01-12T15:24:37.020Z,40.83
2018-01-12T15:26:40.460Z,43.07
2018-01-12T15:28:43.112Z,43.97
2018-01-12T15:30:45.787Z,41.10
2018-01-12T15:32:48.446Z,43.27
2018-01-12T15:34:51.853Z,42.27
2018-01-12T15:36:54.528Z,46.10
2018-01-12T15:38:57.256Z,44.17
2018-01-12T15:40:59.910Z,41.90
2018-01-12T15:43:02.615Z,44.23
2018-01-12T15:45:05.294Z,44.00
2018-01-12T15:47:07.969Z,44.30
2018-01-12T15:49:10.641Z,44.03
2018-01-12T15:51:13.299Z,48.30
2018-01-12T15:53:15.958Z,45.63
2018-01-12T15:55:18.637Z,46.13
2018-01-12T15:57:21.283Z,42.17
2018-01-12T15:59:23.959Z,42.90
2018-01-12T16:01:26.642Z,41.33
2018-01-12T16:03:29.284Z,42.90
2018-01-12T16:05:31.939Z,43.77
2018-01-12T16:07:34.627Z,44.00
2018-01-12T16:09:37.289Z,45.33
2018-01-12T16:11:39.955Z,44.80
2018-01-12T16:13:42.647Z,44.63
2018-01-12T16:15:45.309Z,45.30
2018-01-12T16:17:48.069Z,45.97
2018-01-12T16:19:50.738Z,45.07
2018-01-12T16:21:53.390Z,43.70
2018-01-12T16:23:56.064Z,45.00
2018-01-12T16:25:58.721Z,45.13
2018-01-12T16:28:01.408Z,44.77
2018-01-12T16:30:04.858Z,45.47
2018-01-12T16:32:07.614Z,44.43
2018-01-12T16:34:10.281Z,45.17
2018-01-12T16:36:12.990Z,45.23
2018-01-12T16:38:15.650Z,44.23
2018-01-12T16:40:18.303Z,42.77
2018-01-12T16:42:21.761Z,43.60
2018-01-12T16:44:24.415Z,42.20
2018-01-12T16:46:27.089Z,43.60
2018-01-12T16:48:29.773Z,43.87
2018-01-12T16:50:32.417Z,44.10
2018-01-12T16:52:35.075Z,44.20
2018-01-12T16:54:37.809Z,44.57
2018-01-12T16:56:40.568Z,43.47
2018-01-12T16:58:43.225Z,42.07
2018-01-12T17:00:45.912Z,42.47
2018-01-12T17:02:48.673Z,43.13
2018-01-12T17:04:51.376Z,44.60
2018-01-12T17:06:58.065Z,43.90
2018-01-12T17:09:00.738Z,45.10
2018-01-12T17:11:03.494Z,45.73
2018-01-12T17:13:06.348Z,46.67
2018-01-12T17:15:09.087Z,46.00
2018-01-12T17:17:11.897Z,45.57
2018-01-12T17:19:14.544Z,45.10
2018-01-12T17:21:17.204Z,47.03
2018-01-12T17:23:19.880Z,48.10
2018-01-12T17:25:22.534Z,45.47
2018-01-12T17:27:25.198Z,46.43
2018-01-12T17:29:27.871Z,46.20
2018-01-12T17:31:30.521Z,46.93
2018-01-12T17:33:33.954Z,48.07
2018-01-12T17:37:41.484Z,49.60
2018-01-12T17:39:44.133Z,50.37
2018-01-12T17:41:46.795Z,46.83
2018-01-12T17:43:49.454Z,49.90
2018-01-12T17:45:52.104Z,48.63
2018-01-12T17:47:55.548Z,49.60
2018-01-12T17:49:58.199Z,47.43
2018-01-12T17:52:00.852Z,48.23
2018-01-12T17:54:03.555Z,48.53
2018-01-12T17:56:06.200Z,47.90
2018-01-12T17:58:09.625Z,48.10
2018-01-12T18:00:12.313Z,48.67
2018-01-12T18:02:14.972Z,47.00
2018-01-12T18:04:17.632Z,48.00
2018-01-12T18:06:21.078Z,49.10
2018-01-12T18:08:23.827Z,50.50
2018-01-12T18:10:26.487Z,48.30
2018-01-12T18:12:30.183Z,48.10
2018-01-12T18:14:32.847Z,48.67
2018-01-12T18:16:35.504Z,46.20
2018-01-12T18:18:38.380Z,49.60
2018-01-12T18:20:41.087Z,45.30
2018-01-12T18:22:44.586Z,49.27
2018-01-12T18:24:48.470Z,46.97
2018-01-12T18:26:51.120Z,48.37
2018-01-12T18:28:53.779Z,49.07
2018-01-12T18:30:56.470Z,47.60
2018-01-12T18:32:59.138Z,45.50
2018-01-12T18:35:01.832Z,46.57
2018-01-12T18:37:04.537Z,48.20
2018-01-12T18:39:08.077Z,48.37
2018-01-12T18:41:10.819Z,46.90
2018-01-12T18:43:14.347Z,46.27
2018-01-12T18:45:17.145Z,47.87
2018-01-12T18:47:19.879Z,47.20
2018-01-12T18:49:23.393Z,46.80
2018-01-12T18:51:26.093Z,47.77
2018-01-12T18:53:28.740Z,53.33
2018-01-12T18:55:31.562Z,50.30
2018-01-12T18:57:34.211Z,50.60
2018-01-12T18:59:36.948Z,51.10
2018-01-12T19:01:40.411Z,52.00
2018-01-12T19:03:43.193Z,51.43
2018-01-12T19:05:46.666Z,54.17
2018-01-12T19:07:49.343Z,55.97
2018-01-12T19:09:51.987Z,57.47
2018-01-12T19:11:55.708Z,59.37
2018-01-12T19:13:58.384Z,53.20
2018-01-12T19:16:01.098Z,53.20
2018-01-12T19:18:03.748Z,53.50
2018-01-12T19:20:06.674Z,55.10
2018-01-12T19:22:09.702Z,53.10
2018-01-12T19:24:12.441Z,57.73
2018-01-12T19:26:15.987Z,55.60
2018-01-12T19:28:18.645Z,54.57
2018-01-12T19:30:21.344Z,56.70
2018-01-12T19:32:24.064Z,54.47
2018-01-12T19:34:27.536Z,51.30
2018-01-12T19:36:30.212Z,49.07
2018-01-12T19:38:32.884Z,53.47
2018-01-12T19:40:38.888Z,56.43
2018-01-12T19:42:41.625Z,53.00
2018-01-12T19:44:44.280Z,55.30
2018-01-12T19:46:46.961Z,55.37
2018-01-12T19:48:49.754Z,56.10
2018-01-12T19:50:52.404Z,52.57
2018-01-12T19:52:55.218Z,52.77
2018-01-12T19:54:57.907Z,52.43
2018-01-12T19:57:01.372Z,52.40
2018-01-12T19:59:05.438Z,54.03
2018-01-12T20:01:08.352Z,54.60
2018-01-12T20:03:11.112Z,55.20
2018-01-12T20:05:15.800Z,50.43
2018-01-12T20:07:19.455Z,52.57
2018-01-12T20:09:22.319Z,54.40
2018-01-12T20:11:25.043Z,51.40
2018-01-12T20:13:27.734Z,50.50
2018-01-12T20:15:31.169Z,49.77
2018-01-12T20:17:33.840Z,52.53
2018-01-12T20:19:36.544Z,50.30
2018-01-12T20:21:39.196Z,51.57
2018-01-12T20:23:41.874Z,49.60
2018-01-12T20:25:44.552Z,48.47
2018-01-12T20:27:47.404Z,47.70
2018-01-12T20:29:50.222Z,50.17
2018-01-12T20:31:53.796Z,48.63
2018-01-12T20:33:56.568Z,49.77
2018-01-12T20:35:59.273Z,48.20
2018-01-12T20:38:01.930Z,49.73
2018-01-12T20:40:04.720Z,49.83
2018-01-12T20:42:07.595Z,47.70
2018-01-12T20:44:11.851Z,48.13
2018-01-12T20:46:14.981Z,47.10
2018-01-12T20:48:17.902Z,51.33
2018-01-12T20:50:20.554Z,49.53
2018-01-12T20:52:23.308Z,49.27
2018-01-12T20:54:26.075Z,51.90
2018-01-12T20:56:29.480Z,53.47
2018-01-12T20:58:32.364Z,50.90
2018-01-12T21:00:35.301Z,49.40
2018-01-12T21:02:38.785Z,50.17
2018-01-12T21:04:42.262Z,47.80
2018-01-12T21:06:45.385Z,49.23
2018-01-12T21:08:48.820Z,49.53
2018-01-12T21:10:51.473Z,49.80
2018-01-12T21:12:54.920Z,50.33
2018-01-12T21:14:57.574Z,49.20
2018-01-12T21:17:00.364Z,51.47
2018-01-12T21:19:03.170Z,50.80
2018-01-12T21:21:05.830Z,48.90
2018-01-12T21:23:08.498Z,49.40
2018-01-12T21:25:11.275Z,51.00
2018-01-12T21:27:13.914Z,47.20
2018-01-12T21:29:17.541Z,50.87
2018-01-12T21:31:20.213Z,52.60
2018-01-12T21:33:22.985Z,52.73
2018-01-12T21:35:25.663Z,52.47
2018-01-12T21:37:28.548Z,51.20
2018-01-12T21:39:31.334Z,51.20
2018-01-12T21:41:34.011Z,52.13
2018-01-12T21:43:36.708Z,53.17
2018-01-12T21:45:39.360Z,51.23
2018-01-12T21:47:42.016Z,51.23
2018-01-12T21:49:44.789Z,50.80
2018-01-12T21:51:47.927Z,52.67
2018-01-12T21:53:50.602Z,52.23
2018-01-12T21:55:53.554Z,49.20
2018-01-12T21:57:56.400Z,48.93
2018-01-12T21:59:59.826Z,49.40
2018-01-12T22:02:02.537Z,52.50
2018-01-12T22:04:05.180Z,54.77
2018-01-12T22:06:07.873Z,53.67
2018-01-12T22:08:10.521Z,54.03
2018-01-12T22:10:13.183Z,55.40
2018-01-12T22:12:16.652Z,53.20
2018-01-12T22:14:19.305Z,56.53
2018-01-12T22:16:21.978Z,62.50
2018-01-12T22:18:24.759Z,58.47
2018-01-12T22:20:27.423Z,58.17
2018-01-12T22:22:30.073Z,59.83
2018-01-12T22:24:32.764Z,60.10
2018-01-12T22:26:35.428Z,58.87
2018-01-12T22:28:38.090Z,62.13
2018-01-12T22:30:41.547Z,61.80
2018-01-12T22:32:44.212Z,63.93
2018-01-12T22:34:47.069Z,58.50
2018-01-12T22:36:49.740Z,60.43
2018-01-12T22:38:52.411Z,60.43
2018-01-12T22:40:55.176Z,61.37
2018-01-12T22:42:57.851Z,62.27
2018-01-12T22:45:01.289Z,59.00
2018-01-12T22:47:04.036Z,61.17
2018-01-12T22:49:06.820Z,60.97
2018-01-12T22:51:09.482Z,62.67
2018-01-12T22:53:12.127Z,63.00
2018-01-12T22:55:14.804Z,64.43
2018-01-12T22:57:17.528Z,69.23
2018-01-12T22:59:20.180Z,65.80
2018-01-12T23:01:23.627Z,62.87
2018-01-12T23:03:26.276Z,64.47
2018-01-12T23:05:29.030Z,63.37
2018-01-12T23:07:31.729Z,61.93
2018-01-12T23:09:34.390Z,62.33
2018-01-12T23:11:37.037Z,64.17
2018-01-12T23:13:39.740Z,62.87
2018-01-12T23:15:42.639Z,64.17
2018-01-12T23:17:45.298Z,65.53
2018-01-12T23:19:47.999Z,64.30
2018-01-12T23:21:50.662Z,64.27
2018-01-12T23:23:53.314Z,66.47
2018-01-12T23:25:56.980Z,65.27
2018-01-12T23:27:59.633Z,66.00
2018-01-12T23:30:02.287Z,67.33
2018-01-12T23:32:05.088Z,68.30
2018-01-12T23:34:07.759Z,66.00
2018-01-12T23:36:10.413Z,70.20
2018-01-12T23:38:13.112Z,66.23
2018-01-12T23:40:15.765Z,69.00
2018-01-12T23:42:18.431Z,69.80
2018-01-12T23:44:21.119Z,71.60
2018-01-12T23:46:23.763Z,68.43
2018-01-12T23:48:27.176Z,72.47
2018-01-12T23:50:29.872Z,74.50
2018-01-12T23:52:32.529Z,72.40
2018-01-12T23:54:36.283Z,72.90
2018-01-12T23:56:38.978Z,75.53
2018-01-12T23:58:41.634Z,75.10
